sensor_id;sensor_type;location;lat;lon;timestamp;temperature;humidity
3246;DHT22;1635;48.000;10.582;2022-12-05T00:03:47;20.60;44.60
3246;DHT22;1635;48.000;10.582;2022-12-05T00:06:14;20.60;44.00
3246;DHT22;1635;48.000;10.582;2022-12-05T00:08:42;20.50;44.80
3246;DHT22;1635;48.000;10.582;2022-12-05T00:11:16;20.60;44.20
3246;DHT22;1635;48.000;10.582;2022-12-05T00:13:43;20.50;44.40
3246;DHT22;1635;48.000;10.582;2022-12-05T00:16:12;20.50;44.50
3246;DHT22;1635;48.000;10.582;2022-12-05T00:18:39;20.60;44.30
3246;DHT22;1635;48.000;10.582;2022-12-05T00:21:07;20.60;44.60
3246;DHT22;1635;48.000;10.582;2022-12-05T00:23:37;20.50;44.50
3246;DHT22;1635;48.000;10.582;2022-12-05T00:26:05;20.60;44.40
3246;DHT22;1635;48.000;10.582;2022-12-05T00:28:32;20.50;44.30
3246;DHT22;1635;48.000;10.582;2022-12-05T00:31:26;20.50;44.30
3246;DHT22;1635;48.000;10.582;2022-12-05T00:33:54;20.50;43.80
3246;DHT22;1635;48.000;10.582;2022-12-05T00:36:25;20.60;44.80
3246;DHT22;1635;48.000;10.582;2022-12-05T00:38:53;20.50;44.20
3246;DHT22;1635;48.000;10.582;2022-12-05T00:41:23;20.40;44.60
3246;DHT22;1635;48.000;10.582;2022-12-05T00:43:51;20.40;44.90
3246;DHT22;1635;48.000;10.582;2022-12-05T00:46:21;20.50;44.10
3246;DHT22;1635;48.000;10.582;2022-12-05T00:48:50;20.40;44.50
3246;DHT22;1635;48.000;10.582;2022-12-05T00:51:29;20.40;44.30
3246;DHT22;1635;48.000;10.582;2022-12-05T00:54:01;20.50;44.60
3246;DHT22;1635;48.000;10.582;2022-12-05T00:56:29;20.50;44.60
3246;DHT22;1635;48.000;10.582;2022-12-05T00:58:58;20.50;44.60
3246;DHT22;1635;48.000;10.582;2022-12-05T01:01:29;20.40;44.50
3246;DHT22;1635;48.000;10.582;2022-12-05T01:04:00;20.50;44.60
3246;DHT22;1635;48.000;10.582;2022-12-05T01:06:28;20.40;44.20
3246;DHT22;1635;48.000;10.582;2022-12-05T01:08:55;20.40;44.50
3246;DHT22;1635;48.000;10.582;2022-12-05T01:11:24;20.50;44.20
3246;DHT22;1635;48.000;10.582;2022-12-05T01:13:50;20.50;44.20
3246;DHT22;1635;48.000;10.582;2022-12-05T01:16:28;20.50;44.10
3246;DHT22;1635;48.000;10.582;2022-12-05T01:18:57;20.40;44.50
3246;DHT22;1635;48.000;10.582;2022-12-05T01:21:24;20.50;44.40
3246;DHT22;1635;48.000;10.582;2022-12-05T01:23:52;20.40;44.40
3246;DHT22;1635;48.000;10.582;2022-12-05T01:26:20;20.50;44.50
3246;DHT22;1635;48.000;10.582;2022-12-05T01:28:49;20.40;44.40
3246;DHT22;1635;48.000;10.582;2022-12-05T01:33:48;20.40;44.40
3246;DHT22;1635;48.000;10.582;2022-12-05T01:36:16;20.40;44.40
3246;DHT22;1635;48.000;10.582;2022-12-05T01:38:43;20.40;44.40
3246;DHT22;1635;48.000;10.582;2022-12-05T01:41:13;20.40;44.40
3246;DHT22;1635;48.000;10.582;2022-12-05T01:44:04;20.50;44.10
3246;DHT22;1635;48.000;10.582;2022-12-05T01:46:37;20.40;44.10
3246;DHT22;1635;48.000;10.582;2022-12-05T01:49:12;20.40;44.40
3246;DHT22;1635;48.000;10.582;2022-12-05T01:51:42;20.50;44.60
3246;DHT22;1635;48.000;10.582;2022-12-05T01:54:11;20.40;44.50
3246;DHT22;1635;48.000;10.582;2022-12-05T01:56:40;20.40;44.60
3246;DHT22;1635;48.000;10.582;2022-12-05T01:59:08;20.40;44.40
3246;DHT22;1635;48.000;10.582;2022-12-05T02:01:36;20.40;44.20
3246;DHT22;1635;48.000;10.582;2022-12-05T02:04:05;20.40;44.50
3246;DHT22;1635;48.000;10.582;2022-12-05T02:06:33;20.30;43.80
3246;DHT22;1635;48.000;10.582;2022-12-05T02:09:00;20.40;44.40
3246;DHT22;1635;48.000;10.582;2022-12-05T02:11:29;20.30;44.40
3246;DHT22;1635;48.000;10.582;2022-12-05T02:28:43;20.40;43.90
3246;DHT22;1635;48.000;10.582;2022-12-05T02:31:26;20.30;44.50
3246;DHT22;1635;48.000;10.582;2022-12-05T02:34:17;20.30;44.40
3246;DHT22;1635;48.000;10.582;2022-12-05T02:36:58;20.40;44.50
3246;DHT22;1635;48.000;10.582;2022-12-05T02:45:17;20.40;44.30
3246;DHT22;1635;48.000;10.582;2022-12-05T02:47:50;20.40;44.40
3246;DHT22;1635;48.000;10.582;2022-12-05T02:50:24;20.30;44.30
3246;DHT22;1635;48.000;10.582;2022-12-05T02:52:55;20.40;44.30
3246;DHT22;1635;48.000;10.582;2022-12-05T02:55:25;20.40;43.90
3246;DHT22;1635;48.000;10.582;2022-12-05T02:57:57;20.40;44.30
3246;DHT22;1635;48.000;10.582;2022-12-05T03:00:23;20.40;44.20
3246;DHT22;1635;48.000;10.582;2022-12-05T03:02:54;20.30;44.80
3246;DHT22;1635;48.000;10.582;2022-12-05T03:06:28;20.30;44.60
3246;DHT22;1635;48.000;10.582;2022-12-05T03:08:47;20.40;44.20
3246;DHT22;1635;48.000;10.582;2022-12-05T03:11:15;20.40;44.60
3246;DHT22;1635;48.000;10.582;2022-12-05T03:13:46;20.40;44.40
3246;DHT22;1635;48.000;10.582;2022-12-05T03:16:27;20.40;44.40
3246;DHT22;1635;48.000;10.582;2022-12-05T03:18:58;20.30;44.50
3246;DHT22;1635;48.000;10.582;2022-12-05T03:21:40;20.40;44.20
3246;DHT22;1635;48.000;10.582;2022-12-05T03:24:11;20.30;44.10
3246;DHT22;1635;48.000;10.582;2022-12-05T03:26:59;20.30;44.20
3246;DHT22;1635;48.000;10.582;2022-12-05T03:29:39;20.40;44.20
3246;DHT22;1635;48.000;10.582;2022-12-05T03:35:22;20.30;44.20
3246;DHT22;1635;48.000;10.582;2022-12-05T03:38:15;20.40;44.70
3246;DHT22;1635;48.000;10.582;2022-12-05T03:46:46;20.40;44.20
3246;DHT22;1635;48.000;10.582;2022-12-05T03:49:42;20.30;44.30
3246;DHT22;1635;48.000;10.582;2022-12-05T03:52:24;20.40;44.00
3246;DHT22;1635;48.000;10.582;2022-12-05T03:54:58;20.30;44.30
3246;DHT22;1635;48.000;10.582;2022-12-05T03:57:40;20.30;43.80
3246;DHT22;1635;48.000;10.582;2022-12-05T04:00:17;20.30;44.10
3246;DHT22;1635;48.000;10.582;2022-12-05T04:05:31;20.30;44.30
3246;DHT22;1635;48.000;10.582;2022-12-05T04:08:04;20.30;44.00
3246;DHT22;1635;48.000;10.582;2022-12-05T04:10:34;20.30;44.60
3246;DHT22;1635;48.000;10.582;2022-12-05T04:13:33;20.30;44.30
3246;DHT22;1635;48.000;10.582;2022-12-05T04:16:10;20.20;44.00
3246;DHT22;1635;48.000;10.582;2022-12-05T04:21:53;20.30;44.20
3246;DHT22;1635;48.000;10.582;2022-12-05T04:24:27;20.30;44.50
3246;DHT22;1635;48.000;10.582;2022-12-05T04:27:53;20.30;44.30
3246;DHT22;1635;48.000;10.582;2022-12-05T04:30:23;20.30;44.10
3246;DHT22;1635;48.000;10.582;2022-12-05T04:33:05;20.30;44.30
3246;DHT22;1635;48.000;10.582;2022-12-05T04:35:46;20.30;44.20
3246;DHT22;1635;48.000;10.582;2022-12-05T04:38:20;20.30;43.80
3246;DHT22;1635;48.000;10.582;2022-12-05T04:40:56;20.30;44.20
3246;DHT22;1635;48.000;10.582;2022-12-05T04:43:24;20.40;44.40
3246;DHT22;1635;48.000;10.582;2022-12-05T04:45:53;20.20;44.10
3246;DHT22;1635;48.000;10.582;2022-12-05T04:48:24;20.30;44.50
3246;DHT22;1635;48.000;10.582;2022-12-05T04:50:54;20.30;44.30
3246;DHT22;1635;48.000;10.582;2022-12-05T04:53:25;20.30;44.20
3246;DHT22;1635;48.000;10.582;2022-12-05T04:55:54;20.30;44.30
3246;DHT22;1635;48.000;10.582;2022-12-05T04:58:25;20.30;44.10
3246;DHT22;1635;48.000;10.582;2022-12-05T05:03:57;20.30;44.40
3246;DHT22;1635;48.000;10.582;2022-12-05T05:06:25;20.30;44.00
3246;DHT22;1635;48.000;10.582;2022-12-05T05:08:56;20.30;44.00
3246;DHT22;1635;48.000;10.582;2022-12-05T05:11:26;20.40;44.60
3246;DHT22;1635;48.000;10.582;2022-12-05T05:13:52;20.30;44.20
3246;DHT22;1635;48.000;10.582;2022-12-05T05:16:26;20.30;44.20
3246;DHT22;1635;48.000;10.582;2022-12-05T05:18:54;20.30;44.00
3246;DHT22;1635;48.000;10.582;2022-12-05T05:21:32;20.30;44.10
3246;DHT22;1635;48.000;10.582;2022-12-05T05:24:00;20.30;44.40
3246;DHT22;1635;48.000;10.582;2022-12-05T05:26:30;20.20;43.90
3246;DHT22;1635;48.000;10.582;2022-12-05T05:28:59;20.30;44.40
3246;DHT22;1635;48.000;10.582;2022-12-05T05:31:26;20.30;44.10
3246;DHT22;1635;48.000;10.582;2022-12-05T05:33:55;20.30;44.10
3246;DHT22;1635;48.000;10.582;2022-12-05T05:36:24;20.20;40.30
3246;DHT22;1635;48.000;10.582;2022-12-05T05:38:53;19.60;37.40
3246;DHT22;1635;48.000;10.582;2022-12-05T05:41:23;19.00;37.90
3246;DHT22;1635;48.000;10.582;2022-12-05T05:43:51;19.10;38.70
3246;DHT22;1635;48.000;10.582;2022-12-05T05:46:22;19.30;39.30
3246;DHT22;1635;48.000;10.582;2022-12-05T05:48:49;19.60;39.50
3246;DHT22;1635;48.000;10.582;2022-12-05T05:51:17;19.70;39.00
3246;DHT22;1635;48.000;10.582;2022-12-05T05:53:45;19.90;39.30
3246;DHT22;1635;48.000;10.582;2022-12-05T05:56:14;20.00;39.30
3246;DHT22;1635;48.000;10.582;2022-12-05T05:58:41;20.10;39.90
3246;DHT22;1635;48.000;10.582;2022-12-05T06:01:17;20.20;40.00
3246;DHT22;1635;48.000;10.582;2022-12-05T06:03:45;20.30;39.80
3246;DHT22;1635;48.000;10.582;2022-12-05T06:06:14;20.40;39.90
3246;DHT22;1635;48.000;10.582;2022-12-05T06:08:42;20.40;40.30
3246;DHT22;1635;48.000;10.582;2022-12-05T06:11:20;20.40;40.60
3246;DHT22;1635;48.000;10.582;2022-12-05T06:13:46;20.40;40.70
3246;DHT22;1635;48.000;10.582;2022-12-05T06:16:15;20.50;40.40
3246;DHT22;1635;48.000;10.582;2022-12-05T06:18:42;20.50;40.40
3246;DHT22;1635;48.000;10.582;2022-12-05T06:21:10;20.50;40.90
3246;DHT22;1635;48.000;10.582;2022-12-05T06:23:38;20.50;41.00
3246;DHT22;1635;48.000;10.582;2022-12-05T06:26:08;20.60;41.20
3246;DHT22;1635;48.000;10.582;2022-12-05T06:28:35;20.50;41.00
3246;DHT22;1635;48.000;10.582;2022-12-05T06:31:16;20.60;41.20
3246;DHT22;1635;48.000;10.582;2022-12-05T06:33:44;20.70;41.10
3246;DHT22;1635;48.000;10.582;2022-12-05T06:36:14;20.60;41.20
3246;DHT22;1635;48.000;10.582;2022-12-05T06:38:41;20.60;41.10
3246;DHT22;1635;48.000;10.582;2022-12-05T06:41:12;20.60;41.40
3246;DHT22;1635;48.000;10.582;2022-12-05T06:43:39;20.70;41.40
3246;DHT22;1635;48.000;10.582;2022-12-05T06:46:10;20.70;41.90
3246;DHT22;1635;48.000;10.582;2022-12-05T06:48:37;20.70;41.30
3246;DHT22;1635;48.000;10.582;2022-12-05T06:51:10;20.70;41.70
3246;DHT22;1635;48.000;10.582;2022-12-05T06:53:38;20.60;41.50
3246;DHT22;1635;48.000;10.582;2022-12-05T06:56:08;20.70;41.50
3246;DHT22;1635;48.000;10.582;2022-12-05T06:58:43;20.70;41.60
3246;DHT22;1635;48.000;10.582;2022-12-05T07:01:16;20.70;41.30
3246;DHT22;1635;48.000;10.582;2022-12-05T07:04:02;20.70;42.10
3246;DHT22;1635;48.000;10.582;2022-12-05T07:06:30;20.70;41.80
3246;DHT22;1635;48.000;10.582;2022-12-05T07:08:57;20.80;41.80
3246;DHT22;1635;48.000;10.582;2022-12-05T07:11:24;20.80;41.80
3246;DHT22;1635;48.000;10.582;2022-12-05T07:13:50;20.70;41.90
3246;DHT22;1635;48.000;10.582;2022-12-05T07:16:16;20.70;41.70
3246;DHT22;1635;48.000;10.582;2022-12-05T07:18:43;20.70;42.00
3246;DHT22;1635;48.000;10.582;2022-12-05T07:21:13;20.80;41.40
3246;DHT22;1635;48.000;10.582;2022-12-05T07:23:42;20.80;42.10
3246;DHT22;1635;48.000;10.582;2022-12-05T07:26:15;20.80;41.70
3246;DHT22;1635;48.000;10.582;2022-12-05T07:28:42;20.80;41.60
3246;DHT22;1635;48.000;10.582;2022-12-05T07:31:12;20.80;41.60
3246;DHT22;1635;48.000;10.582;2022-12-05T07:33:39;20.80;41.60
3246;DHT22;1635;48.000;10.582;2022-12-05T07:36:10;20.80;42.00
3246;DHT22;1635;48.000;10.582;2022-12-05T07:38:39;20.90;41.70
3246;DHT22;1635;48.000;10.582;2022-12-05T07:41:08;20.80;41.60
3246;DHT22;1635;48.000;10.582;2022-12-05T07:43:35;20.80;41.60
3246;DHT22;1635;48.000;10.582;2022-12-05T07:46:06;20.80;41.70
3246;DHT22;1635;48.000;10.582;2022-12-05T07:48:33;20.90;41.80
3246;DHT22;1635;48.000;10.582;2022-12-05T07:51:04;20.80;41.90
3246;DHT22;1635;48.000;10.582;2022-12-05T07:53:33;20.80;42.00
3246;DHT22;1635;48.000;10.582;2022-12-05T07:56:03;20.90;40.60
3246;DHT22;1635;48.000;10.582;2022-12-05T07:58:31;20.80;41.70
3246;DHT22;1635;48.000;10.582;2022-12-05T08:01:15;21.00;41.10
3246;DHT22;1635;48.000;10.582;2022-12-05T08:03:44;20.90;40.30
3246;DHT22;1635;48.000;10.582;2022-12-05T08:06:13;21.00;40.50
3246;DHT22;1635;48.000;10.582;2022-12-05T08:08:41;20.90;41.10
3246;DHT22;1635;48.000;10.582;2022-12-05T08:11:13;20.90;42.20
3246;DHT22;1635;48.000;10.582;2022-12-05T08:13:41;20.90;41.10
3246;DHT22;1635;48.000;10.582;2022-12-05T08:16:10;20.90;42.10
3246;DHT22;1635;48.000;10.582;2022-12-05T08:18:37;21.00;40.70
3246;DHT22;1635;48.000;10.582;2022-12-05T08:21:09;20.90;40.60
3246;DHT22;1635;48.000;10.582;2022-12-05T08:23:38;21.00;40.40
3246;DHT22;1635;48.000;10.582;2022-12-05T08:26:11;21.00;40.40
3246;DHT22;1635;48.000;10.582;2022-12-05T08:28:38;21.00;40.60
3246;DHT22;1635;48.000;10.582;2022-12-05T08:31:13;21.00;40.80
3246;DHT22;1635;48.000;10.582;2022-12-05T08:33:41;21.00;40.80
3246;DHT22;1635;48.000;10.582;2022-12-05T08:36:11;21.00;40.50
3246;DHT22;1635;48.000;10.582;2022-12-05T08:38:38;21.00;40.40
3246;DHT22;1635;48.000;10.582;2022-12-05T08:41:08;21.10;40.90
3246;DHT22;1635;48.000;10.582;2022-12-05T08:43:35;21.00;41.10
3246;DHT22;1635;48.000;10.582;2022-12-05T08:46:02;21.10;40.70
3246;DHT22;1635;48.000;10.582;2022-12-05T08:48:33;21.00;40.60
3246;DHT22;1635;48.000;10.582;2022-12-05T08:51:05;21.00;40.80
3246;DHT22;1635;48.000;10.582;2022-12-05T08:53:34;21.00;40.70
3246;DHT22;1635;48.000;10.582;2022-12-05T08:56:07;21.00;40.90
3246;DHT22;1635;48.000;10.582;2022-12-05T08:58:34;21.10;41.00
3246;DHT22;1635;48.000;10.582;2022-12-05T09:01:12;21.10;40.60
3246;DHT22;1635;48.000;10.582;2022-12-05T09:03:40;21.00;41.00
3246;DHT22;1635;48.000;10.582;2022-12-05T09:06:13;20.90;40.60
3246;DHT22;1635;48.000;10.582;2022-12-05T09:08:41;21.00;40.70
3246;DHT22;1635;48.000;10.582;2022-12-05T09:11:11;20.90;41.20
3246;DHT22;1635;48.000;10.582;2022-12-05T09:13:38;21.10;40.70
3246;DHT22;1635;48.000;10.582;2022-12-05T09:16:12;21.00;40.70
3246;DHT22;1635;48.000;10.582;2022-12-05T09:18:39;20.90;40.70
3246;DHT22;1635;48.000;10.582;2022-12-05T09:21:11;20.90;41.30
3246;DHT22;1635;48.000;10.582;2022-12-05T09:23:39;20.90;41.10
3246;DHT22;1635;48.000;10.582;2022-12-05T09:26:09;20.90;41.00
3246;DHT22;1635;48.000;10.582;2022-12-05T09:28:38;20.80;42.10
3246;DHT22;1635;48.000;10.582;2022-12-05T09:31:17;20.90;41.00
3246;DHT22;1635;48.000;10.582;2022-12-05T09:33:44;20.90;40.90
3246;DHT22;1635;48.000;10.582;2022-12-05T09:36:28;20.90;40.80
3246;DHT22;1635;48.000;10.582;2022-12-05T09:38:59;20.90;42.20
3246;DHT22;1635;48.000;10.582;2022-12-05T09:47:41;20.90;42.40
3246;DHT22;1635;48.000;10.582;2022-12-05T09:50:23;20.90;42.40
3246;DHT22;1635;48.000;10.582;2022-12-05T09:53:21;20.80;42.20
3246;DHT22;1635;48.000;10.582;2022-12-05T09:58:46;20.80;42.10
3246;DHT22;1635;48.000;10.582;2022-12-05T10:07:27;20.80;42.20
3246;DHT22;1635;48.000;10.582;2022-12-05T10:10:20;20.80;42.30
3246;DHT22;1635;48.000;10.582;2022-12-05T10:15:41;20.80;42.60
3246;DHT22;1635;48.000;10.582;2022-12-05T10:21:14;20.80;42.50
3246;DHT22;1635;48.000;10.582;2022-12-05T10:26:17;20.70;42.00
3246;DHT22;1635;48.000;10.582;2022-12-05T10:31:44;20.70;42.30
3246;DHT22;1635;48.000;10.582;2022-12-05T10:34:21;20.80;41.90
3246;DHT22;1635;48.000;10.582;2022-12-05T10:36:57;20.80;42.60
3246;DHT22;1635;48.000;10.582;2022-12-05T10:39:26;20.70;41.90
3246;DHT22;1635;48.000;10.582;2022-12-05T10:41:53;20.80;42.20
3246;DHT22;1635;48.000;10.582;2022-12-05T10:44:21;20.80;42.20
3246;DHT22;1635;48.000;10.582;2022-12-05T10:46:48;20.70;42.30
3246;DHT22;1635;48.000;10.582;2022-12-05T10:49:14;20.70;42.50
3246;DHT22;1635;48.000;10.582;2022-12-05T10:51:41;20.70;42.40
3246;DHT22;1635;48.000;10.582;2022-12-05T10:54:23;20.80;41.90
3246;DHT22;1635;48.000;10.582;2022-12-05T10:56:52;20.70;42.60
3246;DHT22;1635;48.000;10.582;2022-12-05T10:59:25;20.70;42.80
3246;DHT22;1635;48.000;10.582;2022-12-05T11:01:57;20.80;42.30
3246;DHT22;1635;48.000;10.582;2022-12-05T11:04:29;20.70;42.70
3246;DHT22;1635;48.000;10.582;2022-12-05T11:07:04;20.80;42.80
3246;DHT22;1635;48.000;10.582;2022-12-05T11:09:37;20.70;42.40
3246;DHT22;1635;48.000;10.582;2022-12-05T11:17:36;20.70;42.30
3246;DHT22;1635;48.000;10.582;2022-12-05T11:22:54;20.60;42.80
3246;DHT22;1635;48.000;10.582;2022-12-05T11:28:00;20.60;42.10
3246;DHT22;1635;48.000;10.582;2022-12-05T11:30:28;20.70;42.70
3246;DHT22;1635;48.000;10.582;2022-12-05T11:33:32;20.60;42.20
3246;DHT22;1635;48.000;10.582;2022-12-05T11:36:16;20.60;43.00
3246;DHT22;1635;48.000;10.582;2022-12-05T11:38:44;20.70;42.70
3246;DHT22;1635;48.000;10.582;2022-12-05T11:50:28;20.60;42.60
3246;DHT22;1635;48.000;10.582;2022-12-05T11:56:21;20.60;42.20
3246;DHT22;1635;48.000;10.582;2022-12-05T12:05:04;20.70;42.60
3246;DHT22;1635;48.000;10.582;2022-12-05T12:08:00;20.70;42.40
3246;DHT22;1635;48.000;10.582;2022-12-05T12:13:44;20.60;42.90
3246;DHT22;1635;48.000;10.582;2022-12-05T12:16:51;20.70;42.30
3246;DHT22;1635;48.000;10.582;2022-12-05T12:25:02;20.60;42.10
3246;DHT22;1635;48.000;10.582;2022-12-05T12:27:46;20.60;42.50
3246;DHT22;1635;48.000;10.582;2022-12-05T12:31:34;20.60;42.70
3246;DHT22;1635;48.000;10.582;2022-12-05T12:34:34;20.60;42.40
3246;DHT22;1635;48.000;10.582;2022-12-05T12:42:26;20.60;42.30
3246;DHT22;1635;48.000;10.582;2022-12-05T12:45:26;20.70;43.20
3246;DHT22;1635;48.000;10.582;2022-12-05T12:50:42;20.50;43.20
3246;DHT22;1635;48.000;10.582;2022-12-05T13:01:54;20.40;42.40
3246;DHT22;1635;48.000;10.582;2022-12-05T13:04:46;20.50;42.60
3246;DHT22;1635;48.000;10.582;2022-12-05T13:07:35;20.50;42.30
3246;DHT22;1635;48.000;10.582;2022-12-05T13:12:52;20.50;42.80
3246;DHT22;1635;48.000;10.582;2022-12-05T13:15:33;20.60;42.80
3246;DHT22;1635;48.000;10.582;2022-12-05T13:18:04;20.60;42.60
3246;DHT22;1635;48.000;10.582;2022-12-05T13:20:33;20.60;42.80
3246;DHT22;1635;48.000;10.582;2022-12-05T13:23:02;20.70;43.20
3246;DHT22;1635;48.000;10.582;2022-12-05T13:25:31;20.60;42.70
3246;DHT22;1635;48.000;10.582;2022-12-05T13:28:02;20.60;42.70
3246;DHT22;1635;48.000;10.582;2022-12-05T13:30:32;20.60;42.80
3246;DHT22;1635;48.000;10.582;2022-12-05T13:33:25;20.60;42.50
3246;DHT22;1635;48.000;10.582;2022-12-05T13:36:03;20.50;43.20
3246;DHT22;1635;48.000;10.582;2022-12-05T13:39:05;20.50;42.70
3246;DHT22;1635;48.000;10.582;2022-12-05T13:41:54;20.60;42.70
3246;DHT22;1635;48.000;10.582;2022-12-05T13:45:09;20.60;42.60
3246;DHT22;1635;48.000;10.582;2022-12-05T13:48:02;20.50;42.50
3246;DHT22;1635;48.000;10.582;2022-12-05T13:50:49;20.60;42.80
3246;DHT22;1635;48.000;10.582;2022-12-05T13:53:39;20.60;42.40
3246;DHT22;1635;48.000;10.582;2022-12-05T13:58:54;20.70;42.70
3246;DHT22;1635;48.000;10.582;2022-12-05T14:04:00;20.60;42.30
3246;DHT22;1635;48.000;10.582;2022-12-05T14:06:55;20.60;42.90
3246;DHT22;1635;48.000;10.582;2022-12-05T14:09:48;20.60;42.70
3246;DHT22;1635;48.000;10.582;2022-12-05T14:17:40;20.60;43.00
3246;DHT22;1635;48.000;10.582;2022-12-05T14:20:34;20.60;42.90
3246;DHT22;1635;48.000;10.582;2022-12-05T14:35:15;20.50;43.20
3246;DHT22;1635;48.000;10.582;2022-12-05T14:37:56;20.60;42.30
3246;DHT22;1635;48.000;10.582;2022-12-05T14:40:37;20.60;43.20
3246;DHT22;1635;48.000;10.582;2022-12-05T14:43:25;20.50;43.10
3246;DHT22;1635;48.000;10.582;2022-12-05T14:46:04;20.60;42.60
3246;DHT22;1635;48.000;10.582;2022-12-05T14:48:39;20.60;42.70
3246;DHT22;1635;48.000;10.582;2022-12-05T14:54:17;20.60;43.20
3246;DHT22;1635;48.000;10.582;2022-12-05T14:56:58;20.50;42.70
3246;DHT22;1635;48.000;10.582;2022-12-05T14:59:56;20.60;42.40
3246;DHT22;1635;48.000;10.582;2022-12-05T15:02:37;20.60;42.90
3246;DHT22;1635;48.000;10.582;2022-12-05T15:05:25;20.60;42.60
3246;DHT22;1635;48.000;10.582;2022-12-05T15:07:56;20.50;43.20
3246;DHT22;1635;48.000;10.582;2022-12-05T15:10:37;20.60;42.80
3246;DHT22;1635;48.000;10.582;2022-12-05T15:13:18;20.50;42.70
3246;DHT22;1635;48.000;10.582;2022-12-05T15:16:11;20.60;43.00
3246;DHT22;1635;48.000;10.582;2022-12-05T15:19:13;20.60;43.00
3246;DHT22;1635;48.000;10.582;2022-12-05T15:21:47;20.60;43.00
3246;DHT22;1635;48.000;10.582;2022-12-05T15:24:18;20.50;42.90
3246;DHT22;1635;48.000;10.582;2022-12-05T15:26:51;20.50;42.90
3246;DHT22;1635;48.000;10.582;2022-12-05T15:33:11;20.50;43.00
3246;DHT22;1635;48.000;10.582;2022-12-05T15:35:39;20.50;43.00
3246;DHT22;1635;48.000;10.582;2022-12-05T15:38:18;20.50;42.90
3246;DHT22;1635;48.000;10.582;2022-12-05T15:40:47;20.50;42.80
3246;DHT22;1635;48.000;10.582;2022-12-05T15:43:30;20.50;42.90
3246;DHT22;1635;48.000;10.582;2022-12-05T15:46:24;20.60;42.60
3246;DHT22;1635;48.000;10.582;2022-12-05T15:48:56;20.60;42.90
3246;DHT22;1635;48.000;10.582;2022-12-05T15:51:32;20.50;42.80
3246;DHT22;1635;48.000;10.582;2022-12-05T15:54:19;20.50;42.90
3246;DHT22;1635;48.000;10.582;2022-12-05T15:57:00;20.50;42.90
3246;DHT22;1635;48.000;10.582;2022-12-05T15:59:50;20.60;43.00
3246;DHT22;1635;48.000;10.582;2022-12-05T16:02:42;20.50;42.90
3246;DHT22;1635;48.000;10.582;2022-12-05T16:05:22;20.60;42.70
3246;DHT22;1635;48.000;10.582;2022-12-05T16:07:51;20.60;43.00
3246;DHT22;1635;48.000;10.582;2022-12-05T16:10:20;20.50;43.10
3246;DHT22;1635;48.000;10.582;2022-12-05T16:12:48;20.50;42.40
3246;DHT22;1635;48.000;10.582;2022-12-05T16:15:26;20.50;43.10
3246;DHT22;1635;48.000;10.582;2022-12-05T16:17:59;20.60;43.60
3246;DHT22;1635;48.000;10.582;2022-12-05T16:20:32;20.60;43.20
3246;DHT22;1635;48.000;10.582;2022-12-05T16:23:01;20.50;42.70
3246;DHT22;1635;48.000;10.582;2022-12-05T16:25:33;20.50;42.90
3246;DHT22;1635;48.000;10.582;2022-12-05T16:28:18;20.50;43.00
3246;DHT22;1635;48.000;10.582;2022-12-05T16:31:01;20.50;42.90
3246;DHT22;1635;48.000;10.582;2022-12-05T16:33:29;20.50;42.90
3246;DHT22;1635;48.000;10.582;2022-12-05T16:36:10;20.50;42.70
3246;DHT22;1635;48.000;10.582;2022-12-05T16:38:38;20.60;43.10
3246;DHT22;1635;48.000;10.582;2022-12-05T16:41:07;20.50;43.10
3246;DHT22;1635;48.000;10.582;2022-12-05T16:49:09;20.50;43.20
3246;DHT22;1635;48.000;10.582;2022-12-05T16:51:39;20.60;42.80
3246;DHT22;1635;48.000;10.582;2022-12-05T16:54:06;20.50;43.20
3246;DHT22;1635;48.000;10.582;2022-12-05T16:56:33;20.60;43.10
3246;DHT22;1635;48.000;10.582;2022-12-05T16:59:16;20.50;42.70
3246;DHT22;1635;48.000;10.582;2022-12-05T17:01:44;20.60;42.80
3246;DHT22;1635;48.000;10.582;2022-12-05T17:04:11;20.40;43.20
3246;DHT22;1635;48.000;10.582;2022-12-05T17:06:38;20.50;43.20
3246;DHT22;1635;48.000;10.582;2022-12-05T17:09:05;20.60;43.30
3246;DHT22;1635;48.000;10.582;2022-12-05T17:11:34;20.50;43.00
3246;DHT22;1635;48.000;10.582;2022-12-05T17:14:02;20.60;43.00
3246;DHT22;1635;48.000;10.582;2022-12-05T17:16:29;20.60;42.80
3246;DHT22;1635;48.000;10.582;2022-12-05T17:18:55;20.50;43.30
3246;DHT22;1635;48.000;10.582;2022-12-05T17:21:25;20.60;42.90
3246;DHT22;1635;48.000;10.582;2022-12-05T17:23:54;20.60;42.90
3246;DHT22;1635;48.000;10.582;2022-12-05T17:26:21;20.60;43.40
3246;DHT22;1635;48.000;10.582;2022-12-05T17:28:48;20.50;43.00
3246;DHT22;1635;48.000;10.582;2022-12-05T17:31:20;20.50;42.90
3246;DHT22;1635;48.000;10.582;2022-12-05T17:33:48;20.50;43.30
3246;DHT22;1635;48.000;10.582;2022-12-05T17:36:16;20.60;43.20
3246;DHT22;1635;48.000;10.582;2022-12-05T17:38:43;20.50;42.90
3246;DHT22;1635;48.000;10.582;2022-12-05T17:41:20;20.60;43.30
3246;DHT22;1635;48.000;10.582;2022-12-05T17:43:49;20.60;43.00
3246;DHT22;1635;48.000;10.582;2022-12-05T17:46:20;20.50;43.50
3246;DHT22;1635;48.000;10.582;2022-12-05T17:48:48;20.70;43.10
3246;DHT22;1635;48.000;10.582;2022-12-05T17:51:15;20.50;44.70
3246;DHT22;1635;48.000;10.582;2022-12-05T17:53:43;20.30;44.70
3246;DHT22;1635;48.000;10.582;2022-12-05T17:56:14;20.30;45.80
3246;DHT22;1635;48.000;10.582;2022-12-05T17:58:42;20.10;45.90
3246;DHT22;1635;48.000;10.582;2022-12-05T18:01:14;20.00;45.90
3246;DHT22;1635;48.000;10.582;2022-12-05T18:03:41;19.90;46.20
3246;DHT22;1635;48.000;10.582;2022-12-05T18:06:09;19.90;45.90
3246;DHT22;1635;48.000;10.582;2022-12-05T18:08:36;20.00;45.80
3246;DHT22;1635;48.000;10.582;2022-12-05T18:11:08;19.90;46.30
3246;DHT22;1635;48.000;10.582;2022-12-05T18:13:35;19.80;45.70
3246;DHT22;1635;48.000;10.582;2022-12-05T18:16:02;19.80;45.70
3246;DHT22;1635;48.000;10.582;2022-12-05T18:18:29;20.00;45.50
3246;DHT22;1635;48.000;10.582;2022-12-05T18:21:09;19.90;46.20
3246;DHT22;1635;48.000;10.582;2022-12-05T18:23:37;19.90;45.70
3246;DHT22;1635;48.000;10.582;2022-12-05T18:26:06;19.90;45.80
3246;DHT22;1635;48.000;10.582;2022-12-05T18:28:35;19.80;46.20
3246;DHT22;1635;48.000;10.582;2022-12-05T18:31:12;19.90;45.80
3246;DHT22;1635;48.000;10.582;2022-12-05T18:33:42;19.90;46.30
3246;DHT22;1635;48.000;10.582;2022-12-05T18:36:11;19.90;46.40
3246;DHT22;1635;48.000;10.582;2022-12-05T18:38:41;19.80;46.10
3246;DHT22;1635;48.000;10.582;2022-12-05T18:41:09;19.90;46.50
3246;DHT22;1635;48.000;10.582;2022-12-05T18:43:36;19.80;46.50
3246;DHT22;1635;48.000;10.582;2022-12-05T18:46:03;19.90;47.00
3246;DHT22;1635;48.000;10.582;2022-12-05T18:48:32;20.20;46.00
3246;DHT22;1635;48.000;10.582;2022-12-05T18:53:41;20.20;45.90
3246;DHT22;1635;48.000;10.582;2022-12-05T18:56:12;20.30;45.80
3246;DHT22;1635;48.000;10.582;2022-12-05T18:58:39;20.10;46.20
3246;DHT22;1635;48.000;10.582;2022-12-05T19:01:12;20.10;46.50
3246;DHT22;1635;48.000;10.582;2022-12-05T19:03:40;20.00;46.50
3246;DHT22;1635;48.000;10.582;2022-12-05T19:06:19;20.20;45.90
3246;DHT22;1635;48.000;10.582;2022-12-05T19:08:47;20.30;45.30
3246;DHT22;1635;48.000;10.582;2022-12-05T19:11:15;20.40;45.50